createdAt,value
2022-07-29T00:01:01.959Z,102009.44
2022-07-29T00:03:29.856Z,102020.81
2022-07-29T00:06:02.221Z,102022.81
2022-07-29T00:08:30.033Z,102018.03
2022-07-29T00:10:59.283Z,102018.91
2022-07-29T00:13:32.456Z,102016.47
2022-07-29T00:16:04.795Z,102013.28
2022-07-29T00:18:37.146Z,102013.34
2022-07-29T00:21:05.333Z,102014.22
2022-07-29T00:23:36.734Z,102011.25
2022-07-29T00:26:10.070Z,102011.25
2022-07-29T00:28:39.969Z,102008.97
2022-07-29T00:31:09.049Z,102010.19
2022-07-29T00:33:38.813Z,102004.97
2022-07-29T00:36:07.972Z,102015.47
2022-07-29T00:38:35.901Z,102018.00
2022-07-29T00:41:05.695Z,102006.06
2022-07-29T00:43:35.128Z,102008.78
2022-07-29T00:46:03.104Z,102008.88
2022-07-29T00:48:33.077Z,102003.88
2022-07-29T00:51:05.178Z,102005.81
2022-07-29T00:53:33.955Z,102001.66
2022-07-29T00:56:02.492Z,101997.41
2022-07-29T00:58:37.018Z,102002.75
2022-07-29T01:01:04.957Z,102010.59
2022-07-29T01:03:32.851Z,102009.94
2022-07-29T01:06:04.967Z,102013.47
2022-07-29T01:08:34.810Z,102010.09
2022-07-29T01:11:05.616Z,102012.69
2022-07-29T01:13:37.415Z,102016.22
2022-07-29T01:16:15.038Z,102014.47
2022-07-29T01:18:50.407Z,102017.66
2022-07-29T01:21:29.835Z,102011.72
2022-07-29T01:24:34.127Z,102013.06
2022-07-29T01:27:19.230Z,102008.00
2022-07-29T01:29:56.214Z,102006.78
2022-07-29T01:32:31.101Z,102009.72
2022-07-29T01:35:07.868Z,102009.94
2022-07-29T01:37:45.223Z,102011.91
2022-07-29T01:40:22.839Z,102002.47
2022-07-29T01:42:56.811Z,102012.16
2022-07-29T01:45:33.595Z,102006.16
2022-07-29T01:48:07.345Z,102008.94
2022-07-29T01:50:39.905Z,102010.84
2022-07-29T01:53:12.724Z,102008.50
2022-07-29T01:55:46.724Z,102016.81
2022-07-29T01:58:19.920Z,102009.75
2022-07-29T02:00:51.155Z,102013.50
2022-07-29T02:03:22.111Z,102014.22
2022-07-29T02:05:50.492Z,102018.00
2022-07-29T02:08:22.739Z,102019.00
2022-07-29T02:10:54.975Z,102014.13
2022-07-29T02:13:26.876Z,102016.88
2022-07-29T02:15:59.431Z,102016.97
2022-07-29T02:18:32.545Z,102021.47
2022-07-29T02:21:02.887Z,102018.78
2022-07-29T02:23:50.966Z,102021.75
2022-07-29T02:26:19.975Z,102020.22
2022-07-29T02:28:53.995Z,102018.75
2022-07-29T02:31:27.163Z,102010.75
2022-07-29T02:34:00.943Z,102023.25
2022-07-29T02:36:30.770Z,102022.44
2022-07-29T02:39:01.764Z,102029.50
2022-07-29T02:41:33.918Z,102020.00
2022-07-29T02:44:08.484Z,102023.41
2022-07-29T02:46:39.828Z,102020.00
2022-07-29T02:49:15.418Z,102022.56
2022-07-29T02:51:49.156Z,102031.28
2022-07-29T02:54:33.087Z,102034.03
2022-07-29T02:57:07.629Z,102033.91
2022-07-29T02:59:39.627Z,102036.50
2022-07-29T03:02:13.628Z,102032.22
2022-07-29T03:04:46.173Z,102042.53
2022-07-29T03:07:19.902Z,102037.06
2022-07-29T03:09:51.674Z,102035.16
2022-07-29T03:12:23.017Z,102036.91
2022-07-29T03:14:54.403Z,102040.69
2022-07-29T03:17:26.040Z,102039.72
2022-07-29T03:19:57.157Z,102042.50
2022-07-29T03:22:25.887Z,102048.56
2022-07-29T03:24:55.647Z,102054.56
2022-07-29T03:27:25.664Z,102050.94
2022-07-29T03:29:53.485Z,102052.59
2022-07-29T03:32:25.125Z,102058.41
2022-07-29T03:34:56.574Z,102050.31
2022-07-29T03:37:26.240Z,102062.09
2022-07-29T03:39:57.189Z,102056.72
2022-07-29T03:42:34.201Z,102054.84
2022-07-29T03:45:05.583Z,102058.06
2022-07-29T03:47:50.200Z,102059.59
2022-07-29T03:50:23.969Z,102051.53
2022-07-29T03:52:54.108Z,102050.44
2022-07-29T03:55:22.310Z,102053.63
2022-07-29T03:57:52.605Z,102058.50
2022-07-29T04:00:22.533Z,102053.91
2022-07-29T04:02:50.396Z,102054.44
2022-07-29T04:05:26.307Z,102058.34
2022-07-29T04:07:54.169Z,102062.31
2022-07-29T04:10:32.066Z,102061.91
2022-07-29T04:13:06.076Z,102049.34
2022-07-29T04:15:33.932Z,102067.16
2022-07-29T04:18:01.812Z,102052.75
2022-07-29T04:20:35.139Z,102059.03
2022-07-29T04:23:02.984Z,102061.84
2022-07-29T04:25:30.871Z,102056.09
2022-07-29T04:28:05.828Z,102059.06
2022-07-29T04:30:34.881Z,102059.25
2022-07-29T04:33:07.010Z,102049.72
2022-07-29T04:35:49.965Z,102057.66
2022-07-29T04:38:20.246Z,102058.38
2022-07-29T04:40:52.110Z,102057.44
2022-07-29T04:43:23.229Z,102062.09
2022-07-29T04:45:55.397Z,102050.97
2022-07-29T04:48:28.242Z,102055.09
2022-07-29T04:51:01.828Z,102055.09
2022-07-29T04:53:29.461Z,102055.69
2022-07-29T04:55:57.240Z,102053.88
2022-07-29T04:58:29.274Z,102059.59
2022-07-29T05:00:57.024Z,102061.81
2022-07-29T05:03:24.636Z,102062.19
2022-07-29T05:05:56.214Z,102063.97
2022-07-29T05:08:25.553Z,102060.91
2022-07-29T05:10:53.160Z,102064.88
2022-07-29T05:13:25.067Z,102066.25
2022-07-29T05:15:52.995Z,102060.31
2022-07-29T05:18:20.622Z,102066.28
2022-07-29T05:20:57.768Z,102069.56
2022-07-29T05:23:26.780Z,102061.22
2022-07-29T05:25:54.340Z,102060.53
2022-07-29T05:28:26.025Z,102068.19
2022-07-29T05:30:53.681Z,102057.34
2022-07-29T05:33:36.105Z,102065.59
2022-07-29T05:36:09.756Z,102061.06
2022-07-29T05:38:38.740Z,102063.50
2022-07-29T05:41:06.629Z,102062.38
2022-07-29T05:43:38.336Z,102055.69
2022-07-29T05:46:05.987Z,102060.63
2022-07-29T05:48:33.659Z,102072.31
2022-07-29T05:51:05.427Z,102070.22
2022-07-29T05:53:33.104Z,102073.09
2022-07-29T05:56:05.082Z,102066.97
2022-07-29T05:58:36.887Z,102079.63
2022-07-29T06:01:04.548Z,102078.56
2022-07-29T06:03:32.329Z,102075.38
2022-07-29T06:06:02.479Z,102077.53
2022-07-29T06:08:30.096Z,102073.94
2022-07-29T06:10:57.715Z,102073.50
2022-07-29T06:13:27.377Z,102071.47
2022-07-29T06:15:57.278Z,102073.16
2022-07-29T06:18:24.970Z,102081.38
2022-07-29T06:20:57.287Z,102080.63
2022-07-29T06:23:24.991Z,102081.31
2022-07-29T06:25:52.658Z,102085.84
2022-07-29T06:28:24.564Z,102084.91
2022-07-29T06:30:53.557Z,102080.53
2022-07-29T06:33:21.340Z,102079.19
2022-07-29T06:35:55.112Z,102076.09
2022-07-29T06:38:30.950Z,102081.09
2022-07-29T06:41:05.370Z,102077.25
2022-07-29T06:43:35.054Z,102084.19
2022-07-29T06:46:09.261Z,102086.84
2022-07-29T06:48:38.077Z,102082.53
2022-07-29T06:51:08.028Z,102086.31
2022-07-29T06:53:38.334Z,102090.84
2022-07-29T06:56:06.825Z,102088.50
2022-07-29T06:58:36.473Z,102090.25
2022-07-29T07:03:50.501Z,102102.56
2022-07-29T07:06:20.291Z,102090.06
2022-07-29T07:08:49.013Z,102100.88
2022-07-29T07:11:16.736Z,102099.22
2022-07-29T07:13:44.509Z,102083.53
2022-07-29T07:16:13.545Z,102094.22
2022-07-29T07:18:41.803Z,102095.06
2022-07-29T07:21:09.574Z,102100.69
2022-07-29T07:23:39.490Z,102093.50
2022-07-29T07:26:07.381Z,102085.03
2022-07-29T07:28:36.171Z,102092.41
2022-07-29T07:31:05.954Z,102087.59
2022-07-29T07:33:36.920Z,102085.38
2022-07-29T07:36:04.696Z,102084.00
2022-07-29T07:38:34.425Z,102080.13
2022-07-29T07:41:04.163Z,102078.09
2022-07-29T07:43:31.892Z,102080.03
2022-07-29T07:46:01.677Z,102075.50
2022-07-29T07:48:35.877Z,102075.69
2022-07-29T07:51:06.979Z,102077.69
2022-07-29T07:53:34.840Z,102071.13
2022-07-29T07:56:11.086Z,102069.41
2022-07-29T07:58:39.883Z,102073.59
2022-07-29T08:01:07.927Z,102071.28
2022-07-29T08:05:56.357Z,102071.22
2022-07-29T08:10:02.618Z,102076.03
2022-07-29T08:12:30.899Z,102080.38
2022-07-29T08:14:58.784Z,102076.06
2022-07-29T08:17:29.333Z,102086.16
2022-07-29T08:19:57.237Z,102081.25
2022-07-29T08:22:24.999Z,102077.06
2022-07-29T08:24:56.309Z,102081.53
2022-07-29T08:27:44.591Z,102081.44
2022-07-29T08:30:13.174Z,102078.53
2022-07-29T08:32:53.903Z,102079.59
2022-07-29T08:35:24.011Z,102086.22
2022-07-29T08:37:52.735Z,102085.97
2022-07-29T08:40:21.536Z,102084.72
2022-07-29T08:43:07.906Z,102086.66
2022-07-29T08:45:47.318Z,102086.19
2022-07-29T08:48:23.038Z,102069.84
2022-07-29T08:50:57.616Z,102070.31
2022-07-29T08:53:31.552Z,102075.50
2022-07-29T08:56:00.506Z,102077.81
2022-07-29T08:58:38.471Z,102080.59
2022-07-29T09:01:07.499Z,102085.47
2022-07-29T09:03:40.105Z,102085.91
2022-07-29T09:06:08.398Z,102071.19
2022-07-29T09:08:37.227Z,102074.66
2022-07-29T09:11:07.485Z,102074.41
2022-07-29T09:13:36.998Z,102076.19
2022-07-29T09:16:09.317Z,102079.19
2022-07-29T09:18:43.202Z,102078.06
2022-07-29T09:21:30.106Z,102074.72
2022-07-29T09:24:10.794Z,102086.91
2022-07-29T09:26:41.518Z,102077.22
2022-07-29T09:29:19.348Z,102073.59
2022-07-29T09:31:48.948Z,102075.44
2022-07-29T09:34:24.638Z,102075.31
2022-07-29T09:36:54.585Z,102059.19
2022-07-29T09:39:35.481Z,102058.00
2022-07-29T09:42:06.062Z,102062.34
2022-07-29T09:44:49.296Z,102061.81
2022-07-29T09:47:19.426Z,102059.47
2022-07-29T09:50:01.115Z,102048.53
2022-07-29T09:52:30.830Z,102047.19
2022-07-29T09:55:09.896Z,102058.19
2022-07-29T09:57:41.932Z,102054.38
2022-07-29T10:00:18.034Z,102062.41
2022-07-29T10:02:47.928Z,102062.69
2022-07-29T10:05:23.384Z,102052.69
2022-07-29T10:07:54.206Z,102046.53
2022-07-29T10:10:29.333Z,102053.41
2022-07-29T10:13:03.104Z,102068.34
2022-07-29T10:15:42.094Z,102061.41
2022-07-29T10:18:10.735Z,102057.41
2022-07-29T10:20:42.145Z,102054.75
2022-07-29T10:23:13.119Z,102061.00
2022-07-29T10:25:46.189Z,102060.19
2022-07-29T10:28:16.754Z,102059.72
2022-07-29T10:30:51.723Z,102052.88
2022-07-29T10:33:43.709Z,102045.56
2022-07-29T10:36:26.314Z,102047.00
2022-07-29T10:39:03.951Z,102046.53
2022-07-29T10:41:49.129Z,102047.44
2022-07-29T10:44:22.826Z,102048.25
2022-07-29T10:46:54.577Z,102044.31
2022-07-29T10:49:25.445Z,102051.91
2022-07-29T10:51:58.569Z,102049.75
2022-07-29T10:54:46.195Z,102036.41
2022-07-29T10:57:52.298Z,102037.13
2022-07-29T11:00:34.232Z,102040.84
2022-07-29T11:03:10.882Z,102033.34
2022-07-29T11:05:59.575Z,102030.47
2022-07-29T11:08:28.948Z,102034.38
2022-07-29T11:11:51.418Z,102026.56
2022-07-29T11:14:58.242Z,102017.38
2022-07-29T11:17:26.459Z,102021.44
2022-07-29T11:20:33.685Z,102023.19
2022-07-29T11:23:04.171Z,102025.97
2022-07-29T11:25:42.366Z,102023.84
2022-07-29T11:28:25.157Z,102019.22
2022-07-29T11:30:55.148Z,102015.63
2022-07-29T11:33:54.169Z,102013.47
2022-07-29T11:39:36.943Z,102027.69
2022-07-29T11:42:42.000Z,102025.28
2022-07-29T11:45:42.535Z,102016.44
2022-07-29T11:48:29.012Z,102012.75
2022-07-29T11:50:51.995Z,102015.72
2022-07-29T11:53:21.739Z,102016.16
2022-07-29T11:55:59.421Z,102028.09
2022-07-29T11:58:30.573Z,102016.72
2022-07-29T12:01:04.223Z,102024.63
2022-07-29T12:03:35.988Z,102013.16
2022-07-29T12:06:07.470Z,102013.44
2022-07-29T12:08:43.704Z,102009.25
2022-07-29T12:11:20.577Z,102007.53
2022-07-29T12:13:52.818Z,102003.91
2022-07-29T12:16:26.134Z,102001.50
2022-07-29T12:19:02.287Z,102006.13
2022-07-29T12:21:31.373Z,101999.94
2022-07-29T12:24:05.846Z,102006.06
2022-07-29T12:26:37.945Z,102001.06
2022-07-29T12:29:14.790Z,101993.78
2022-07-29T12:31:48.852Z,101993.63
2022-07-29T12:34:18.209Z,101985.03
2022-07-29T12:36:46.527Z,101983.63
2022-07-29T12:39:22.385Z,101988.13
2022-07-29T12:41:50.301Z,101987.53
2022-07-29T12:44:18.249Z,101994.75
2022-07-29T12:46:49.473Z,101988.41
2022-07-29T12:49:23.844Z,101987.28
2022-07-29T12:51:56.930Z,101988.16
2022-07-29T12:54:26.559Z,101987.16
2022-07-29T12:57:03.569Z,101982.78
2022-07-29T12:59:31.827Z,101984.19
2022-07-29T13:02:01.033Z,101981.88
2022-07-29T13:04:33.421Z,101976.53
2022-07-29T13:07:05.150Z,101982.59
2022-07-29T13:09:44.338Z,101976.56
2022-07-29T13:12:13.975Z,101980.25
2022-07-29T13:14:43.677Z,101975.75
2022-07-29T13:17:13.509Z,101975.19
2022-07-29T13:19:43.190Z,101973.22
2022-07-29T13:22:12.508Z,101969.84
2022-07-29T13:24:57.888Z,101974.31
2022-07-29T13:27:27.805Z,101966.44
2022-07-29T13:30:01.379Z,101973.06
2022-07-29T13:32:30.857Z,101974.06
2022-07-29T13:35:05.664Z,101971.16
2022-07-29T13:37:36.877Z,101968.16
2022-07-29T13:40:11.746Z,101969.53
2022-07-29T13:42:40.098Z,101958.16
2022-07-29T13:45:11.724Z,101964.78
2022-07-29T13:47:47.452Z,101956.88
2022-07-29T13:50:19.803Z,101950.41
2022-07-29T13:52:51.497Z,101943.66
2022-07-29T13:55:23.014Z,101940.25
2022-07-29T13:57:51.051Z,101936.16
2022-07-29T14:00:23.144Z,101932.09
2022-07-29T14:02:51.069Z,101932.91
2022-07-29T14:05:18.984Z,101932.44
2022-07-29T14:07:51.262Z,101928.16
2022-07-29T14:10:20.666Z,101933.94
2022-07-29T14:12:48.613Z,101936.06
2022-07-29T14:15:20.825Z,101929.47
2022-07-29T14:17:48.840Z,101946.09
2022-07-29T14:20:17.646Z,101943.97
2022-07-29T14:22:50.135Z,101944.41
2022-07-29T14:25:18.245Z,101939.66
2022-07-29T14:27:56.223Z,101942.44
2022-07-29T14:30:28.720Z,101936.34
2022-07-29T14:32:56.561Z,101932.41
2022-07-29T14:35:26.613Z,101935.50
2022-07-29T14:37:56.721Z,101932.97
2022-07-29T14:40:24.851Z,101940.88
2022-07-29T14:42:56.186Z,101933.50
2022-07-29T14:45:24.834Z,101931.09
2022-07-29T14:47:53.386Z,101921.66
2022-07-29T14:50:31.738Z,101928.00
2022-07-29T14:53:00.206Z,101927.22
2022-07-29T14:55:32.830Z,101927.38
2022-07-29T14:58:09.914Z,101929.75
2022-07-29T15:00:44.225Z,101924.28
2022-07-29T15:03:12.169Z,101922.84
2022-07-29T15:05:40.469Z,101921.47
2022-07-29T15:08:13.394Z,101914.69
2022-07-29T15:10:41.303Z,101922.94
2022-07-29T15:13:10.684Z,101918.44
2022-07-29T15:15:45.381Z,101909.16
2022-07-29T15:18:13.527Z,101912.13
2022-07-29T15:20:41.623Z,101907.47
2022-07-29T15:23:15.460Z,101907.50
2022-07-29T15:25:44.408Z,101904.31
2022-07-29T15:28:15.830Z,101909.47
2022-07-29T15:30:45.966Z,101914.19
2022-07-29T15:33:14.020Z,101904.22
2022-07-29T15:35:41.996Z,101903.72
2022-07-29T15:38:14.092Z,101898.66
2022-07-29T15:40:43.936Z,101899.19
2022-07-29T15:43:17.916Z,101899.84
2022-07-29T15:46:01.916Z,101885.97
2022-07-29T15:48:32.378Z,101899.19
2022-07-29T15:54:07.330Z,101891.38
2022-07-29T15:56:37.750Z,101892.50
2022-07-29T15:59:07.138Z,101892.03
2022-07-29T16:01:42.453Z,101887.06
2022-07-29T16:04:10.518Z,101890.97
2022-07-29T16:06:42.600Z,101886.22
2022-07-29T16:09:10.935Z,101890.19
2022-07-29T16:11:38.912Z,101893.50
2022-07-29T16:14:14.269Z,101895.81
2022-07-29T16:16:43.649Z,101894.09
2022-07-29T16:19:11.687Z,101887.28
2022-07-29T16:21:42.456Z,101887.69
2022-07-29T16:24:12.950Z,101886.69
2022-07-29T16:26:41.028Z,101881.47
2022-07-29T16:29:12.613Z,101888.22
2022-07-29T16:31:45.020Z,101885.19
2022-07-29T16:34:13.123Z,101875.53
2022-07-29T16:36:47.754Z,101880.19
2022-07-29T16:39:18.119Z,101885.47
2022-07-29T16:41:48.080Z,101876.75
2022-07-29T16:44:17.918Z,101886.53
2022-07-29T16:46:49.384Z,101877.44
2022-07-29T16:49:19.414Z,101880.63
2022-07-29T16:51:47.897Z,101873.25
2022-07-29T16:54:18.123Z,101878.97
2022-07-29T16:56:48.147Z,101881.50
2022-07-29T16:59:18.059Z,101878.34
2022-07-29T17:01:48.658Z,101874.13
2022-07-29T17:04:17.129Z,101866.38
2022-07-29T17:06:45.446Z,101860.88
2022-07-29T17:09:16.083Z,101865.25
2022-07-29T17:11:52.967Z,101871.75
2022-07-29T17:14:29.383Z,101875.53
2022-07-29T17:17:02.032Z,101875.44
2022-07-29T17:19:32.349Z,101879.53
2022-07-29T17:22:18.642Z,101874.06
2022-07-29T17:24:47.260Z,101873.63
2022-07-29T17:27:18.007Z,101866.13
2022-07-29T17:29:47.898Z,101871.09
2022-07-29T17:32:16.023Z,101867.38
2022-07-29T17:34:49.034Z,101865.13
2022-07-29T17:37:18.936Z,101861.44
2022-07-29T17:39:56.203Z,101863.53
2022-07-29T17:42:26.736Z,101870.59
2022-07-29T17:45:00.964Z,101866.84
2022-07-29T17:47:33.734Z,101868.28
2022-07-29T17:50:05.646Z,101871.31
2022-07-29T17:52:37.817Z,101872.91
2022-07-29T17:55:10.611Z,101869.53
2022-07-29T17:57:40.873Z,101875.06
2022-07-29T18:00:11.369Z,101875.44
2022-07-29T18:02:50.332Z,101867.34
2022-07-29T18:05:20.841Z,101875.38
2022-07-29T18:07:58.403Z,101869.84
2022-07-29T18:10:36.599Z,101883.53
2022-07-29T18:13:05.363Z,101874.44
2022-07-29T18:15:46.688Z,101871.31
2022-07-29T18:18:22.688Z,101877.47
2022-07-29T18:20:56.490Z,101878.41
2022-07-29T18:23:36.067Z,101886.16
2022-07-29T18:26:07.412Z,101892.81
2022-07-29T18:28:40.472Z,101891.00
2022-07-29T18:31:14.797Z,101893.19
2022-07-29T18:33:46.300Z,101891.25
2022-07-29T18:36:18.674Z,101894.16
2022-07-29T18:38:51.738Z,101894.88
2022-07-29T18:41:25.517Z,101897.94
2022-07-29T18:43:57.252Z,101892.44
2022-07-29T18:46:29.289Z,101902.19
2022-07-29T18:49:02.757Z,101894.31
2022-07-29T18:51:37.613Z,101897.34
2022-07-29T18:54:14.023Z,101887.28
2022-07-29T18:56:45.455Z,101889.91
2022-07-29T18:59:20.418Z,101889.34
2022-07-29T19:01:55.401Z,101885.91
2022-07-29T19:04:31.512Z,101896.53
2022-07-29T19:07:03.434Z,101891.63
2022-07-29T19:09:34.171Z,101897.66
2022-07-29T19:12:07.457Z,101902.28
2022-07-29T19:14:38.912Z,101894.78
2022-07-29T19:17:09.410Z,101906.44
2022-07-29T19:19:41.136Z,101889.25
2022-07-29T19:22:09.519Z,101910.88
2022-07-29T19:24:38.671Z,101909.19
2022-07-29T19:27:08.023Z,101897.53
2022-07-29T19:29:41.307Z,101900.50
2022-07-29T19:32:25.031Z,101899.84
2022-07-29T19:35:09.327Z,101899.66
2022-07-29T19:37:41.435Z,101910.84
2022-07-29T19:40:12.695Z,101903.19
2022-07-29T19:42:44.643Z,101909.44
2022-07-29T19:45:14.130Z,101911.63
2022-07-29T19:47:47.281Z,101912.63
2022-07-29T19:50:20.684Z,101895.84
2022-07-29T19:53:07.896Z,101900.78
2022-07-29T19:55:41.425Z,101905.94
2022-07-29T19:58:15.353Z,101920.09
2022-07-29T20:00:45.203Z,101911.25
2022-07-29T20:03:16.469Z,101919.63
2022-07-29T20:05:49.281Z,101922.78
2022-07-29T20:08:17.184Z,101922.38
2022-07-29T20:10:45.301Z,101922.06
2022-07-29T20:13:17.696Z,101918.41
2022-07-29T20:15:47.522Z,101916.63
2022-07-29T20:18:22.364Z,101906.84
2022-07-29T20:21:05.411Z,101908.28
2022-07-29T20:23:35.119Z,101909.66
2022-07-29T20:26:06.099Z,101913.44
2022-07-29T20:28:45.265Z,101923.19
2022-07-29T20:31:27.237Z,101912.69
2022-07-29T20:33:59.547Z,101909.78
2022-07-29T20:36:29.675Z,101912.59
2022-07-29T20:39:01.398Z,101901.28
2022-07-29T20:41:39.347Z,101904.13
2022-07-29T20:44:18.365Z,101904.09
2022-07-29T20:46:48.830Z,101905.63
2022-07-29T20:49:18.570Z,101907.03
2022-07-29T20:51:49.053Z,101897.50
2022-07-29T20:54:19.133Z,101916.56
2022-07-29T20:56:53.359Z,101917.41
2022-07-29T20:59:23.744Z,101916.47
2022-07-29T21:01:57.140Z,101911.47
2022-07-29T21:04:32.754Z,101917.59
2022-07-29T21:07:01.582Z,101910.25
2022-07-29T21:09:33.832Z,101901.47
2022-07-29T21:12:04.739Z,101902.13
2022-07-29T21:14:51.928Z,101898.44
2022-07-29T21:17:22.644Z,101903.25
2022-07-29T21:19:53.629Z,101911.28
2022-07-29T21:22:22.465Z,101903.25
2022-07-29T21:24:50.879Z,101899.97
2022-07-29T21:27:38.629Z,101912.22
2022-07-29T21:30:08.316Z,101907.69
2022-07-29T21:32:36.856Z,101915.53
2022-07-29T21:35:18.149Z,101902.59
2022-07-29T21:37:54.379Z,101900.16
2022-07-29T21:40:22.599Z,101904.97
2022-07-29T21:42:50.597Z,101909.59
2022-07-29T21:45:20.941Z,101910.91
2022-07-29T21:47:49.969Z,101902.31
2022-07-29T21:50:21.503Z,101900.53
2022-07-29T21:52:55.710Z,101901.19
2022-07-29T21:55:26.245Z,101906.19
2022-07-29T21:58:00.073Z,101900.16
2022-07-29T22:00:28.946Z,101902.41
2022-07-29T22:02:57.186Z,101902.81
2022-07-29T22:05:31.061Z,101903.75
2022-07-29T22:08:01.349Z,101907.13
2022-07-29T22:10:30.758Z,101900.53
2022-07-29T22:13:02.631Z,101898.44
2022-07-29T22:15:31.681Z,101898.91
2022-07-29T22:18:00.308Z,101894.69
2022-07-29T22:20:31.613Z,101900.53
2022-07-29T22:23:03.805Z,101894.88
2022-07-29T22:25:31.828Z,101894.88
2022-07-29T22:28:01.503Z,101895.53
2022-07-29T22:30:31.588Z,101892.25
2022-07-29T22:32:59.594Z,101907.28
2022-07-29T22:35:31.314Z,101904.03
2022-07-29T22:37:59.559Z,101902.72
2022-07-29T22:40:28.125Z,101901.91
2022-07-29T22:43:00.653Z,101899.22
2022-07-29T22:45:29.955Z,101891.66
2022-07-29T22:47:59.521Z,101889.03
2022-07-29T22:50:31.379Z,101889.50
2022-07-29T22:53:01.465Z,101887.50
2022-07-29T22:55:29.787Z,101886.75
2022-07-29T22:57:58.004Z,101889.16
2022-07-29T23:00:26.210Z,101892.34
2022-07-29T23:02:54.064Z,101885.84
2022-07-29T23:05:22.211Z,101895.78
2022-07-29T23:07:53.565Z,101887.28
2022-07-29T23:10:23.813Z,101897.63
2022-07-29T23:12:51.679Z,101893.25
2022-07-29T23:15:19.901Z,101893.59
2022-07-29T23:17:52.695Z,101898.97
2022-07-29T23:20:21.502Z,101895.00
2022-07-29T23:22:49.599Z,101892.75
2022-07-29T23:25:23.556Z,101894.44
2022-07-29T23:27:51.503Z,101882.94
2022-07-29T23:30:19.595Z,101880.31
2022-07-29T23:32:51.552Z,101888.22
2022-07-29T23:35:19.943Z,101878.09
2022-07-29T23:37:49.151Z,101878.78
2022-07-29T23:40:19.658Z,101887.22
2022-07-29T23:42:48.120Z,101884.84
2022-07-29T23:45:16.330Z,101882.63
2022-07-29T23:47:48.573Z,101872.94
2022-07-29T23:50:17.778Z,101877.84
2022-07-29T23:52:46.018Z,101883.94
2022-07-29T23:55:37.593Z,101880.31
2022-07-29T23:58:09.339Z,101877.69
